sensor_id;sensor_type;location;lat;lon;timestamp;temperature;humidity
16182;DHT22;8197;51.664;7.114;2024-03-25T00:01:42;6.30;100.00
16182;DHT22;8197;51.664;7.114;2024-03-25T00:06:44;6.30;100.00
16182;DHT22;8197;51.664;7.114;2024-03-25T00:11:47;6.30;100.00
16182;DHT22;8197;51.664;7.114;2024-03-25T00:16:49;6.20;100.00
16182;DHT22;8197;51.664;7.114;2024-03-25T00:21:51;6.30;100.00
16182;DHT22;8197;51.664;7.114;2024-03-25T00:26:55;6.30;100.00
16182;DHT22;8197;51.664;7.114;2024-03-25T00:31:57;6.30;100.00
16182;DHT22;8197;51.664;7.114;2024-03-25T00:36:59;6.20;100.00
16182;DHT22;8197;51.664;7.114;2024-03-25T00:42:03;6.20;100.00
16182;DHT22;8197;51.664;7.114;2024-03-25T00:47:05;6.20;100.00
16182;DHT22;8197;51.664;7.114;2024-03-25T00:52:07;6.20;100.00
16182;DHT22;8197;51.664;7.114;2024-03-25T00:57:10;6.10;100.00
16182;DHT22;8197;51.664;7.114;2024-03-25T01:02:13;6.20;100.00
16182;DHT22;8197;51.664;7.114;2024-03-25T01:07:15;6.20;100.00
16182;DHT22;8197;51.664;7.114;2024-03-25T01:12:18;6.10;100.00
16182;DHT22;8197;51.664;7.114;2024-03-25T01:17:21;6.10;100.00
16182;DHT22;8197;51.664;7.114;2024-03-25T01:22:24;6.10;100.00
16182;DHT22;8197;51.664;7.114;2024-03-25T01:27:27;6.00;100.00
16182;DHT22;8197;51.664;7.114;2024-03-25T01:32:29;6.00;100.00
16182;DHT22;8197;51.664;7.114;2024-03-25T01:37:31;6.00;100.00
16182;DHT22;8197;51.664;7.114;2024-03-25T01:42:34;6.00;100.00
16182;DHT22;8197;51.664;7.114;2024-03-25T01:47:36;6.10;100.00
16182;DHT22;8197;51.664;7.114;2024-03-25T01:52:40;6.20;100.00
16182;DHT22;8197;51.664;7.114;2024-03-25T01:57:44;6.10;100.00
16182;DHT22;8197;51.664;7.114;2024-03-25T02:02:46;6.10;100.00
16182;DHT22;8197;51.664;7.114;2024-03-25T02:07:49;6.00;100.00
16182;DHT22;8197;51.664;7.114;2024-03-25T02:12:54;6.00;100.00
16182;DHT22;8197;51.664;7.114;2024-03-25T02:17:56;5.90;100.00
16182;DHT22;8197;51.664;7.114;2024-03-25T02:22:59;5.90;100.00
16182;DHT22;8197;51.664;7.114;2024-03-25T02:28:02;5.80;100.00
16182;DHT22;8197;51.664;7.114;2024-03-25T02:33:04;5.90;100.00
16182;DHT22;8197;51.664;7.114;2024-03-25T02:38:07;5.80;100.00
16182;DHT22;8197;51.664;7.114;2024-03-25T02:43:11;5.80;100.00
16182;DHT22;8197;51.664;7.114;2024-03-25T02:48:14;5.80;100.00
16182;DHT22;8197;51.664;7.114;2024-03-25T02:53:16;5.80;100.00
16182;DHT22;8197;51.664;7.114;2024-03-25T02:58:19;5.80;100.00
16182;DHT22;8197;51.664;7.114;2024-03-25T03:03:21;5.80;100.00
16182;DHT22;8197;51.664;7.114;2024-03-25T03:08:23;5.70;100.00
16182;DHT22;8197;51.664;7.114;2024-03-25T03:13:26;5.70;100.00
16182;DHT22;8197;51.664;7.114;2024-03-25T03:18:28;5.70;100.00
16182;DHT22;8197;51.664;7.114;2024-03-25T03:23:30;5.60;100.00
16182;DHT22;8197;51.664;7.114;2024-03-25T03:28:34;5.60;100.00
16182;DHT22;8197;51.664;7.114;2024-03-25T03:33:36;5.50;100.00
16182;DHT22;8197;51.664;7.114;2024-03-25T03:38:38;5.50;100.00
16182;DHT22;8197;51.664;7.114;2024-03-25T03:43:41;5.50;100.00
16182;DHT22;8197;51.664;7.114;2024-03-25T03:48:43;5.30;100.00
16182;DHT22;8197;51.664;7.114;2024-03-25T03:53:45;5.20;100.00
16182;DHT22;8197;51.664;7.114;2024-03-25T03:58:48;5.20;100.00
16182;DHT22;8197;51.664;7.114;2024-03-25T04:03:50;5.20;100.00
16182;DHT22;8197;51.664;7.114;2024-03-25T04:08:52;5.20;100.00
16182;DHT22;8197;51.664;7.114;2024-03-25T04:13:56;5.20;100.00
16182;DHT22;8197;51.664;7.114;2024-03-25T04:18:58;5.20;100.00
16182;DHT22;8197;51.664;7.114;2024-03-25T04:24:00;5.10;100.00
16182;DHT22;8197;51.664;7.114;2024-03-25T04:29:03;5.00;100.00
16182;DHT22;8197;51.664;7.114;2024-03-25T04:34:05;5.00;100.00
16182;DHT22;8197;51.664;7.114;2024-03-25T04:39:07;4.90;100.00
16182;DHT22;8197;51.664;7.114;2024-03-25T04:44:10;4.90;100.00
16182;DHT22;8197;51.664;7.114;2024-03-25T04:49:11;5.00;100.00
16182;DHT22;8197;51.664;7.114;2024-03-25T04:54:12;5.00;100.00
16182;DHT22;8197;51.664;7.114;2024-03-25T04:59:14;5.00;100.00
16182;DHT22;8197;51.664;7.114;2024-03-25T05:04:15;5.00;100.00
16182;DHT22;8197;51.664;7.114;2024-03-25T05:09:17;5.00;100.00
16182;DHT22;8197;51.664;7.114;2024-03-25T05:14:19;4.90;100.00
16182;DHT22;8197;51.664;7.114;2024-03-25T05:19:20;4.90;100.00
16182;DHT22;8197;51.664;7.114;2024-03-25T05:24:21;4.80;100.00
16182;DHT22;8197;51.664;7.114;2024-03-25T05:29:24;4.90;100.00
16182;DHT22;8197;51.664;7.114;2024-03-25T05:34:26;4.90;100.00
16182;DHT22;8197;51.664;7.114;2024-03-25T05:39:27;4.60;100.00
16182;DHT22;8197;51.664;7.114;2024-03-25T05:44:29;4.50;100.00
16182;DHT22;8197;51.664;7.114;2024-03-25T05:49:30;4.60;100.00
16182;DHT22;8197;51.664;7.114;2024-03-25T05:54:31;4.60;100.00
16182;DHT22;8197;51.664;7.114;2024-03-25T05:59:34;4.40;100.00
16182;DHT22;8197;51.664;7.114;2024-03-25T06:04:35;4.50;100.00
16182;DHT22;8197;51.664;7.114;2024-03-25T06:09:36;4.60;100.00
16182;DHT22;8197;51.664;7.114;2024-03-25T06:14:38;4.60;100.00
16182;DHT22;8197;51.664;7.114;2024-03-25T06:19:39;4.80;100.00
16182;DHT22;8197;51.664;7.114;2024-03-25T06:24:41;4.90;100.00
16182;DHT22;8197;51.664;7.114;2024-03-25T06:29:43;5.00;100.00
16182;DHT22;8197;51.664;7.114;2024-03-25T06:34:44;5.10;100.00
16182;DHT22;8197;51.664;7.114;2024-03-25T06:39:45;5.10;100.00
16182;DHT22;8197;51.664;7.114;2024-03-25T06:44:48;5.20;100.00
16182;DHT22;8197;51.664;7.114;2024-03-25T06:49:49;5.30;100.00
16182;DHT22;8197;51.664;7.114;2024-03-25T06:54:50;5.30;100.00
16182;DHT22;8197;51.664;7.114;2024-03-25T06:59:52;5.40;100.00
16182;DHT22;8197;51.664;7.114;2024-03-25T07:04:53;5.50;100.00
16182;DHT22;8197;51.664;7.114;2024-03-25T07:09:54;5.50;100.00
16182;DHT22;8197;51.664;7.114;2024-03-25T07:14:57;5.60;100.00
16182;DHT22;8197;51.664;7.114;2024-03-25T07:19:58;5.70;100.00
16182;DHT22;8197;51.664;7.114;2024-03-25T07:24:59;5.90;100.00
16182;DHT22;8197;51.664;7.114;2024-03-25T07:30:01;6.10;100.00
16182;DHT22;8197;51.664;7.114;2024-03-25T07:35:04;6.20;100.00
16182;DHT22;8197;51.664;7.114;2024-03-25T07:40:06;6.40;100.00
16182;DHT22;8197;51.664;7.114;2024-03-25T07:45:09;6.50;100.00
16182;DHT22;8197;51.664;7.114;2024-03-25T07:50:10;6.50;100.00
16182;DHT22;8197;51.664;7.114;2024-03-25T07:55:20;6.50;100.00
16182;DHT22;8197;51.664;7.114;2024-03-25T08:00:49;6.70;100.00
16182;DHT22;8197;51.664;7.114;2024-03-25T08:05:50;6.90;100.00
16182;DHT22;8197;51.664;7.114;2024-03-25T08:10:51;7.00;100.00
16182;DHT22;8197;51.664;7.114;2024-03-25T08:15:54;7.20;100.00
16182;DHT22;8197;51.664;7.114;2024-03-25T08:20:55;7.40;100.00
16182;DHT22;8197;51.664;7.114;2024-03-25T08:25:56;7.60;100.00
16182;DHT22;8197;51.664;7.114;2024-03-25T08:30:59;7.90;100.00
16182;DHT22;8197;51.664;7.114;2024-03-25T08:36:00;7.90;100.00
16182;DHT22;8197;51.664;7.114;2024-03-25T08:41:01;8.00;100.00
16182;DHT22;8197;51.664;7.114;2024-03-25T08:46:04;8.20;100.00
16182;DHT22;8197;51.664;7.114;2024-03-25T08:51:05;8.20;98.90
16182;DHT22;8197;51.664;7.114;2024-03-25T08:56:06;8.50;100.00
16182;DHT22;8197;51.664;7.114;2024-03-25T09:01:08;8.80;95.60
16182;DHT22;8197;51.664;7.114;2024-03-25T09:06:09;9.10;94.40
16182;DHT22;8197;51.664;7.114;2024-03-25T09:11:11;9.10;88.60
16182;DHT22;8197;51.664;7.114;2024-03-25T09:16:13;9.20;89.60
16182;DHT22;8197;51.664;7.114;2024-03-25T09:21:14;9.30;79.00
16182;DHT22;8197;51.664;7.114;2024-03-25T09:26:15;9.10;79.80
16182;DHT22;8197;51.664;7.114;2024-03-25T09:31:18;9.20;84.50
16182;DHT22;8197;51.664;7.114;2024-03-25T09:36:19;9.10;80.90
16182;DHT22;8197;51.664;7.114;2024-03-25T09:41:20;9.20;76.10
16182;DHT22;8197;51.664;7.114;2024-03-25T09:46:23;9.70;78.30
16182;DHT22;8197;51.664;7.114;2024-03-25T09:51:24;10.10;76.20
16182;DHT22;8197;51.664;7.114;2024-03-25T09:56:25;10.30;74.20
16182;DHT22;8197;51.664;7.114;2024-03-25T10:01:28;10.40;70.10
16182;DHT22;8197;51.664;7.114;2024-03-25T10:06:29;10.20;73.00
16182;DHT22;8197;51.664;7.114;2024-03-25T10:11:30;10.20;70.30
16182;DHT22;8197;51.664;7.114;2024-03-25T10:16:32;10.30;73.90
16182;DHT22;8197;51.664;7.114;2024-03-25T10:21:34;10.90;75.60
16182;DHT22;8197;51.664;7.114;2024-03-25T10:26:35;11.20;70.60
16182;DHT22;8197;51.664;7.114;2024-03-25T10:31:37;10.90;70.90
16182;DHT22;8197;51.664;7.114;2024-03-25T10:36:38;10.90;71.40
16182;DHT22;8197;51.664;7.114;2024-03-25T10:41:40;10.80;71.10
16182;DHT22;8197;51.664;7.114;2024-03-25T10:46:43;10.80;69.70
16182;DHT22;8197;51.664;7.114;2024-03-25T10:51:45;10.90;70.40
16182;DHT22;8197;51.664;7.114;2024-03-25T10:56:47;11.30;69.50
16182;DHT22;8197;51.664;7.114;2024-03-25T11:01:50;11.50;70.50
16182;DHT22;8197;51.664;7.114;2024-03-25T11:06:51;11.50;69.50
16182;DHT22;8197;51.664;7.114;2024-03-25T11:11:52;11.60;67.00
16182;DHT22;8197;51.664;7.114;2024-03-25T11:16:55;11.00;62.80
16182;DHT22;8197;51.664;7.114;2024-03-25T11:22:07;11.10;62.30
16182;DHT22;8197;51.664;7.114;2024-03-25T11:27:08;11.20;62.10
16182;DHT22;8197;51.664;7.114;2024-03-25T11:32:11;11.80;64.10
16182;DHT22;8197;51.664;7.114;2024-03-25T11:37:12;11.60;61.80
16182;DHT22;8197;51.664;7.114;2024-03-25T11:42:13;12.10;62.70
16182;DHT22;8197;51.664;7.114;2024-03-25T11:47:16;11.30;59.00
16182;DHT22;8197;51.664;7.114;2024-03-25T11:52:17;11.90;62.50
16182;DHT22;8197;51.664;7.114;2024-03-25T11:57:18;12.00;59.90
16182;DHT22;8197;51.664;7.114;2024-03-25T12:02:21;11.60;57.10
16182;DHT22;8197;51.664;7.114;2024-03-25T12:07:22;11.80;58.80
16182;DHT22;8197;51.664;7.114;2024-03-25T12:12:24;11.90;56.80
16182;DHT22;8197;51.664;7.114;2024-03-25T12:17:27;11.80;57.20
16182;DHT22;8197;51.664;7.114;2024-03-25T12:22:28;11.90;56.50
16182;DHT22;8197;51.664;7.114;2024-03-25T12:27:30;12.70;60.00
16182;DHT22;8197;51.664;7.114;2024-03-25T12:32:36;12.30;55.40
16182;DHT22;8197;51.664;7.114;2024-03-25T12:37:38;12.40;56.60
16182;DHT22;8197;51.664;7.114;2024-03-25T12:42:40;11.50;56.30
16182;DHT22;8197;51.664;7.114;2024-03-25T12:47:42;11.90;59.60
16182;DHT22;8197;51.664;7.114;2024-03-25T12:52:43;11.90;53.60
16182;DHT22;8197;51.664;7.114;2024-03-25T12:57:44;12.20;57.00
16182;DHT22;8197;51.664;7.114;2024-03-25T13:02:47;12.40;54.90
16182;DHT22;8197;51.664;7.114;2024-03-25T13:07:48;12.50;54.80
16182;DHT22;8197;51.664;7.114;2024-03-25T13:12:49;12.70;52.40
16182;DHT22;8197;51.664;7.114;2024-03-25T13:17:52;12.90;53.40
16182;DHT22;8197;51.664;7.114;2024-03-25T13:22:54;12.60;51.70
16182;DHT22;8197;51.664;7.114;2024-03-25T13:27:56;12.90;53.60
16182;DHT22;8197;51.664;7.114;2024-03-25T13:32:59;12.70;51.50
16182;DHT22;8197;51.664;7.114;2024-03-25T13:38:00;12.80;52.90
16182;DHT22;8197;51.664;7.114;2024-03-25T13:43:01;13.10;52.00
16182;DHT22;8197;51.664;7.114;2024-03-25T13:48:04;13.20;49.00
16182;DHT22;8197;51.664;7.114;2024-03-25T13:53:05;13.10;51.70
16182;DHT22;8197;51.664;7.114;2024-03-25T13:58:06;12.90;50.60
16182;DHT22;8197;51.664;7.114;2024-03-25T14:03:09;13.10;52.90
16182;DHT22;8197;51.664;7.114;2024-03-25T14:08:10;13.40;51.10
16182;DHT22;8197;51.664;7.114;2024-03-25T14:13:11;13.40;53.20
16182;DHT22;8197;51.664;7.114;2024-03-25T14:18:14;13.00;51.30
16182;DHT22;8197;51.664;7.114;2024-03-25T14:23:15;13.00;51.10
16182;DHT22;8197;51.664;7.114;2024-03-25T14:28:16;13.30;50.00
16182;DHT22;8197;51.664;7.114;2024-03-25T14:33:18;13.40;50.70
16182;DHT22;8197;51.664;7.114;2024-03-25T14:38:19;13.60;49.10
16182;DHT22;8197;51.664;7.114;2024-03-25T14:43:20;13.40;47.60
16182;DHT22;8197;51.664;7.114;2024-03-25T14:48:23;13.50;50.80
16182;DHT22;8197;51.664;7.114;2024-03-25T14:53:24;13.70;50.70
16182;DHT22;8197;51.664;7.114;2024-03-25T14:58:26;13.40;48.60
16182;DHT22;8197;51.664;7.114;2024-03-25T15:03:28;13.00;49.70
16182;DHT22;8197;51.664;7.114;2024-03-25T15:08:31;13.00;49.30
16182;DHT22;8197;51.664;7.114;2024-03-25T15:13:32;13.00;49.30
16182;DHT22;8197;51.664;7.114;2024-03-25T15:18:35;12.80;47.20
16182;DHT22;8197;51.664;7.114;2024-03-25T15:23:36;12.90;48.80
16182;DHT22;8197;51.664;7.114;2024-03-25T15:28:37;13.10;50.30
16182;DHT22;8197;51.664;7.114;2024-03-25T15:33:40;13.40;50.30
16182;DHT22;8197;51.664;7.114;2024-03-25T15:38:41;13.30;47.80
16182;DHT22;8197;51.664;7.114;2024-03-25T15:43:42;13.50;47.80
16182;DHT22;8197;51.664;7.114;2024-03-25T15:48:44;13.70;49.90
16182;DHT22;8197;51.664;7.114;2024-03-25T15:53:46;13.80;50.70
16182;DHT22;8197;51.664;7.114;2024-03-25T15:58:47;13.50;47.70
16182;DHT22;8197;51.664;7.114;2024-03-25T16:03:49;13.40;47.20
16182;DHT22;8197;51.664;7.114;2024-03-25T16:08:51;13.30;47.90
16182;DHT22;8197;51.664;7.114;2024-03-25T16:13:52;13.40;47.30
16182;DHT22;8197;51.664;7.114;2024-03-25T16:18:55;13.60;49.70
16182;DHT22;8197;51.664;7.114;2024-03-25T16:23:56;13.30;46.90
16182;DHT22;8197;51.664;7.114;2024-03-25T16:28:57;13.20;48.20
16182;DHT22;8197;51.664;7.114;2024-03-25T16:33:59;13.30;49.60
16182;DHT22;8197;51.664;7.114;2024-03-25T16:39:00;13.10;46.90
16182;DHT22;8197;51.664;7.114;2024-03-25T16:44:02;12.80;49.60
16182;DHT22;8197;51.664;7.114;2024-03-25T16:49:04;12.80;50.10
16182;DHT22;8197;51.664;7.114;2024-03-25T16:54:05;12.60;49.00
16182;DHT22;8197;51.664;7.114;2024-03-25T16:59:06;12.30;49.20
16182;DHT22;8197;51.664;7.114;2024-03-25T17:04:09;12.10;51.60
16182;DHT22;8197;51.664;7.114;2024-03-25T17:09:10;12.00;51.70
16182;DHT22;8197;51.664;7.114;2024-03-25T17:14:11;11.90;51.40
16182;DHT22;8197;51.664;7.114;2024-03-25T17:19:13;11.80;52.10
16182;DHT22;8197;51.664;7.114;2024-03-25T17:24:14;11.70;53.30
16182;DHT22;8197;51.664;7.114;2024-03-25T17:29:15;11.70;53.90
16182;DHT22;8197;51.664;7.114;2024-03-25T17:34:18;11.60;53.90
16182;DHT22;8197;51.664;7.114;2024-03-25T17:39:19;11.50;54.80
16182;DHT22;8197;51.664;7.114;2024-03-25T17:44:21;11.40;55.20
16182;DHT22;8197;51.664;7.114;2024-03-25T17:49:23;11.30;55.60
16182;DHT22;8197;51.664;7.114;2024-03-25T17:54:25;11.10;55.00
16182;DHT22;8197;51.664;7.114;2024-03-25T17:59:26;11.00;55.10
16182;DHT22;8197;51.664;7.114;2024-03-25T18:04:28;10.90;56.70
16182;DHT22;8197;51.664;7.114;2024-03-25T18:09:29;10.70;57.80
16182;DHT22;8197;51.664;7.114;2024-03-25T18:14:33;10.70;57.50
16182;DHT22;8197;51.664;7.114;2024-03-25T18:19:35;10.40;57.90
16182;DHT22;8197;51.664;7.114;2024-03-25T18:24:37;10.30;59.20
16182;DHT22;8197;51.664;7.114;2024-03-25T18:29:38;10.20;59.20
16182;DHT22;8197;51.664;7.114;2024-03-25T18:34:40;10.10;60.60
16182;DHT22;8197;51.664;7.114;2024-03-25T18:39:41;10.00;61.30
16182;DHT22;8197;51.664;7.114;2024-03-25T18:44:42;9.90;62.60
16182;DHT22;8197;51.664;7.114;2024-03-25T18:49:45;9.90;62.80
16182;DHT22;8197;51.664;7.114;2024-03-25T18:54:46;9.80;63.30
16182;DHT22;8197;51.664;7.114;2024-03-25T18:59:47;9.70;64.00
16182;DHT22;8197;51.664;7.114;2024-03-25T19:04:49;9.60;64.60
16182;DHT22;8197;51.664;7.114;2024-03-25T19:09:50;9.50;64.50
16182;DHT22;8197;51.664;7.114;2024-03-25T19:14:51;9.40;65.40
16182;DHT22;8197;51.664;7.114;2024-03-25T19:19:54;9.40;65.40
16182;DHT22;8197;51.664;7.114;2024-03-25T19:24:55;9.30;65.90
16182;DHT22;8197;51.664;7.114;2024-03-25T19:29:56;9.30;66.40
16182;DHT22;8197;51.664;7.114;2024-03-25T19:34:59;9.20;66.30
16182;DHT22;8197;51.664;7.114;2024-03-25T19:40:00;9.10;66.70
16182;DHT22;8197;51.664;7.114;2024-03-25T19:45:01;9.00;67.30
16182;DHT22;8197;51.664;7.114;2024-03-25T19:50:04;8.90;67.80
16182;DHT22;8197;51.664;7.114;2024-03-25T19:55:05;8.80;67.60
16182;DHT22;8197;51.664;7.114;2024-03-25T20:00:08;8.80;67.90
16182;DHT22;8197;51.664;7.114;2024-03-25T20:05:10;8.90;68.50
16182;DHT22;8197;51.664;7.114;2024-03-25T20:10:12;8.80;68.10
16182;DHT22;8197;51.664;7.114;2024-03-25T20:15:13;8.80;68.90
16182;DHT22;8197;51.664;7.114;2024-03-25T20:20:15;8.70;68.80
16182;DHT22;8197;51.664;7.114;2024-03-25T20:25:16;8.70;68.60
16182;DHT22;8197;51.664;7.114;2024-03-25T20:30:17;8.70;68.70
16182;DHT22;8197;51.664;7.114;2024-03-25T20:35:20;8.60;68.70
16182;DHT22;8197;51.664;7.114;2024-03-25T20:40:22;8.60;69.00
16182;DHT22;8197;51.664;7.114;2024-03-25T20:45:23;8.60;69.10
16182;DHT22;8197;51.664;7.114;2024-03-25T20:50:26;8.60;68.80
16182;DHT22;8197;51.664;7.114;2024-03-25T20:55:27;8.50;69.30
16182;DHT22;8197;51.664;7.114;2024-03-25T21:00:28;8.50;69.50
16182;DHT22;8197;51.664;7.114;2024-03-25T21:05:30;8.40;69.30
16182;DHT22;8197;51.664;7.114;2024-03-25T21:10:31;8.50;70.30
16182;DHT22;8197;51.664;7.114;2024-03-25T21:15:32;8.30;69.80
16182;DHT22;8197;51.664;7.114;2024-03-25T21:20:35;8.30;70.10
16182;DHT22;8197;51.664;7.114;2024-03-25T21:25:36;8.30;70.10
16182;DHT22;8197;51.664;7.114;2024-03-25T21:30:38;8.20;70.60
16182;DHT22;8197;51.664;7.114;2024-03-25T21:35:41;8.10;70.30
16182;DHT22;8197;51.664;7.114;2024-03-25T21:40:42;8.10;71.30
16182;DHT22;8197;51.664;7.114;2024-03-25T21:45:43;8.10;70.70
16182;DHT22;8197;51.664;7.114;2024-03-25T21:50:53;8.10;71.50
16182;DHT22;8197;51.664;7.114;2024-03-25T21:55:54;8.00;71.40
16182;DHT22;8197;51.664;7.114;2024-03-25T22:00:56;8.00;72.70
16182;DHT22;8197;51.664;7.114;2024-03-25T22:05:58;7.90;72.50
16182;DHT22;8197;51.664;7.114;2024-03-25T22:10:59;7.90;73.10
16182;DHT22;8197;51.664;7.114;2024-03-25T22:16:01;7.70;73.20
16182;DHT22;8197;51.664;7.114;2024-03-25T22:21:05;7.60;73.00
16182;DHT22;8197;51.664;7.114;2024-03-25T22:26:06;7.60;73.80
16182;DHT22;8197;51.664;7.114;2024-03-25T22:31:07;7.60;74.20
16182;DHT22;8197;51.664;7.114;2024-03-25T22:36:09;7.50;74.60
16182;DHT22;8197;51.664;7.114;2024-03-25T22:41:11;7.40;74.80
16182;DHT22;8197;51.664;7.114;2024-03-25T22:46:12;7.40;75.00
16182;DHT22;8197;51.664;7.114;2024-03-25T22:51:14;7.40;74.40
16182;DHT22;8197;51.664;7.114;2024-03-25T22:56:15;7.30;74.50
16182;DHT22;8197;51.664;7.114;2024-03-25T23:01:16;7.20;73.90
16182;DHT22;8197;51.664;7.114;2024-03-25T23:06:19;7.20;74.80
16182;DHT22;8197;51.664;7.114;2024-03-25T23:11:20;7.20;75.10
16182;DHT22;8197;51.664;7.114;2024-03-25T23:16:21;7.20;74.30
16182;DHT22;8197;51.664;7.114;2024-03-25T23:21:24;7.10;74.60
16182;DHT22;8197;51.664;7.114;2024-03-25T23:26:25;7.00;74.60
16182;DHT22;8197;51.664;7.114;2024-03-25T23:31:26;7.00;75.30
16182;DHT22;8197;51.664;7.114;2024-03-25T23:36:28;7.00;75.00
16182;DHT22;8197;51.664;7.114;2024-03-25T23:41:29;7.00;74.50
16182;DHT22;8197;51.664;7.114;2024-03-25T23:46:31;7.00;74.80
16182;DHT22;8197;51.664;7.114;2024-03-25T23:51:33;7.00;74.60
16182;DHT22;8197;51.664;7.114;2024-03-25T23:56:34;7.00;73.70
